sensor_id;sensor_type;location;lat;lon;timestamp;P1;durP1;ratioP1;P2;durP2;ratioP2
21517;SDS011;61765;45.794;24.150;2023-09-19T00:07:30;6.30;;;4.75;;
21517;SDS011;61765;45.794;24.150;2023-09-19T00:15:39;9.63;;;4.63;;
21517;SDS011;61765;45.794;24.150;2023-09-19T00:31:59;7.93;;;4.50;;
21517;SDS011;61765;45.794;24.150;2023-09-19T00:40:08;5.78;;;4.50;;
21517;SDS011;61765;45.794;24.150;2023-09-19T00:48:17;6.22;;;4.35;;
21517;SDS011;61765;45.794;24.150;2023-09-19T00:56:26;4.55;;;4.15;;
21517;SDS011;61765;45.794;24.150;2023-09-19T01:04:34;4.55;;;3.75;;
21517;SDS011;61765;45.794;24.150;2023-09-19T01:12:47;7.63;;;4.20;;
21517;SDS011;61765;45.794;24.150;2023-09-19T01:21:05;6.97;;;4.05;;
21517;SDS011;61765;45.794;24.150;2023-09-19T01:29:23;7.07;;;4.40;;
21517;SDS011;61765;45.794;24.150;2023-09-19T01:37:43;4.45;;;3.92;;
21517;SDS011;61765;45.794;24.150;2023-09-19T01:45:50;6.35;;;4.57;;
21517;SDS011;61765;45.794;24.150;2023-09-19T01:54:08;8.63;;;4.35;;
21517;SDS011;61765;45.794;24.150;2023-09-19T02:02:17;6.85;;;4.43;;
21517;SDS011;61765;45.794;24.150;2023-09-19T02:10:28;7.18;;;4.82;;
21517;SDS011;61765;45.794;24.150;2023-09-19T02:18:33;6.95;;;4.63;;
21517;SDS011;61765;45.794;24.150;2023-09-19T02:26:42;6.72;;;4.82;;
21517;SDS011;61765;45.794;24.150;2023-09-19T02:34:47;7.70;;;4.55;;
21517;SDS011;61765;45.794;24.150;2023-09-19T02:42:56;5.90;;;4.68;;
21517;SDS011;61765;45.794;24.150;2023-09-19T02:51:01;8.35;;;4.65;;
21517;SDS011;61765;45.794;24.150;2023-09-19T02:59:10;6.35;;;4.10;;
21517;SDS011;61765;45.794;24.150;2023-09-19T03:07:16;5.55;;;4.30;;
21517;SDS011;61765;45.794;24.150;2023-09-19T03:15:25;7.53;;;4.45;;
21517;SDS011;61765;45.794;24.150;2023-09-19T03:23:31;7.18;;;4.60;;
21517;SDS011;61765;45.794;24.150;2023-09-19T03:31:40;6.28;;;4.38;;
21517;SDS011;61765;45.794;24.150;2023-09-19T03:39:46;6.65;;;4.50;;
21517;SDS011;61765;45.794;24.150;2023-09-19T03:47:54;7.18;;;4.43;;
21517;SDS011;61765;45.794;24.150;2023-09-19T03:56:00;11.38;;;4.97;;
21517;SDS011;61765;45.794;24.150;2023-09-19T04:04:10;6.80;;;4.38;;
21517;SDS011;61765;45.794;24.150;2023-09-19T04:12:16;11.30;;;4.80;;
21517;SDS011;61765;45.794;24.150;2023-09-19T04:20:24;8.48;;;4.50;;
21517;SDS011;61765;45.794;24.150;2023-09-19T04:28:30;7.90;;;4.60;;
21517;SDS011;61765;45.794;24.150;2023-09-19T04:36:39;7.38;;;4.72;;
21517;SDS011;61765;45.794;24.150;2023-09-19T04:44:45;7.38;;;4.90;;
21517;SDS011;61765;45.794;24.150;2023-09-19T04:52:53;8.73;;;4.93;;
21517;SDS011;61765;45.794;24.150;2023-09-19T05:00:59;8.43;;;5.18;;
21517;SDS011;61765;45.794;24.150;2023-09-19T05:09:08;11.30;;;6.57;;
21517;SDS011;61765;45.794;24.150;2023-09-19T05:17:15;11.68;;;6.00;;
21517;SDS011;61765;45.794;24.150;2023-09-19T05:25:24;8.65;;;4.63;;
21517;SDS011;61765;45.794;24.150;2023-09-19T05:33:31;7.13;;;4.25;;
21517;SDS011;61765;45.794;24.150;2023-09-19T05:41:39;8.30;;;4.65;;
21517;SDS011;61765;45.794;24.150;2023-09-19T05:49:44;10.88;;;5.18;;
21517;SDS011;61765;45.794;24.150;2023-09-19T05:57:54;14.98;;;7.38;;
21517;SDS011;61765;45.794;24.150;2023-09-19T06:05:59;14.32;;;7.03;;
21517;SDS011;61765;45.794;24.150;2023-09-19T06:14:08;20.27;;;10.60;;
21517;SDS011;61765;45.794;24.150;2023-09-19T06:22:14;28.13;;;15.32;;
21517;SDS011;61765;45.794;24.150;2023-09-19T06:30:24;17.13;;;11.50;;
21517;SDS011;61765;45.794;24.150;2023-09-19T06:38:31;14.10;;;8.45;;
21517;SDS011;61765;45.794;24.150;2023-09-19T06:46:40;17.58;;;9.57;;
21517;SDS011;61765;45.794;24.150;2023-09-19T06:54:48;14.60;;;8.95;;
21517;SDS011;61765;45.794;24.150;2023-09-19T07:02:58;17.17;;;8.82;;
21517;SDS011;61765;45.794;24.150;2023-09-19T07:11:06;17.75;;;7.53;;
21517;SDS011;61765;45.794;24.150;2023-09-19T07:19:16;15.85;;;7.78;;
21517;SDS011;61765;45.794;24.150;2023-09-19T07:27:22;10.35;;;5.82;;
21517;SDS011;61765;45.794;24.150;2023-09-19T07:35:30;11.13;;;8.07;;
21517;SDS011;61765;45.794;24.150;2023-09-19T07:43:36;13.93;;;6.75;;
21517;SDS011;61765;45.794;24.150;2023-09-19T07:51:45;16.58;;;8.25;;
21517;SDS011;61765;45.794;24.150;2023-09-19T07:59:51;10.82;;;7.50;;
21517;SDS011;61765;45.794;24.150;2023-09-19T08:08:02;14.00;;;8.25;;
21517;SDS011;61765;45.794;24.150;2023-09-19T08:16:09;13.52;;;6.68;;
21517;SDS011;61765;45.794;24.150;2023-09-19T08:24:19;11.23;;;6.40;;
21517;SDS011;61765;45.794;24.150;2023-09-19T08:32:25;8.73;;;5.30;;
21517;SDS011;61765;45.794;24.150;2023-09-19T08:40:34;9.60;;;5.70;;
21517;SDS011;61765;45.794;24.150;2023-09-19T08:48:45;9.18;;;6.00;;
21517;SDS011;61765;45.794;24.150;2023-09-19T08:56:57;7.18;;;5.28;;
21517;SDS011;61765;45.794;24.150;2023-09-19T09:05:09;8.48;;;5.20;;
21517;SDS011;61765;45.794;24.150;2023-09-19T09:13:19;6.47;;;4.85;;
21517;SDS011;61765;45.794;24.150;2023-09-19T09:21:26;7.15;;;4.72;;
21517;SDS011;61765;45.794;24.150;2023-09-19T09:29:46;6.65;;;5.10;;
21517;SDS011;61765;45.794;24.150;2023-09-19T09:37:59;7.93;;;4.60;;
21517;SDS011;61765;45.794;24.150;2023-09-19T09:46:13;7.57;;;4.78;;
21517;SDS011;61765;45.794;24.150;2023-09-19T09:54:32;7.67;;;4.97;;
21517;SDS011;61765;45.794;24.150;2023-09-19T10:02:41;7.30;;;4.80;;
21517;SDS011;61765;45.794;24.150;2023-09-19T10:10:49;10.63;;;5.32;;
21517;SDS011;61765;45.794;24.150;2023-09-19T10:19:09;7.40;;;5.03;;
21517;SDS011;61765;45.794;24.150;2023-09-19T10:27:18;7.18;;;5.03;;
21517;SDS011;61765;45.794;24.150;2023-09-19T10:35:27;8.40;;;6.72;;
21517;SDS011;61765;45.794;24.150;2023-09-19T10:43:32;8.60;;;5.55;;
21517;SDS011;61765;45.794;24.150;2023-09-19T10:51:42;10.73;;;6.30;;
21517;SDS011;61765;45.794;24.150;2023-09-19T11:00:00;8.48;;;5.78;;
21517;SDS011;61765;45.794;24.150;2023-09-19T11:08:26;9.75;;;5.78;;
21517;SDS011;61765;45.794;24.150;2023-09-19T11:16:32;9.77;;;5.72;;
21517;SDS011;61765;45.794;24.150;2023-09-19T11:24:40;10.70;;;6.28;;
21517;SDS011;61765;45.794;24.150;2023-09-19T11:41:40;15.18;;;8.07;;
21517;SDS011;61765;45.794;24.150;2023-09-19T11:57:58;9.13;;;6.38;;
21517;SDS011;61765;45.794;24.150;2023-09-19T12:06:10;8.38;;;6.38;;
21517;SDS011;61765;45.794;24.150;2023-09-19T12:14:24;11.60;;;5.68;;
21517;SDS011;61765;45.794;24.150;2023-09-19T12:22:38;9.18;;;5.40;;
21517;SDS011;61765;45.794;24.150;2023-09-19T12:30:48;8.77;;;5.78;;
21517;SDS011;61765;45.794;24.150;2023-09-19T12:38:54;6.63;;;5.28;;
21517;SDS011;61765;45.794;24.150;2023-09-19T12:47:10;6.53;;;5.38;;
21517;SDS011;61765;45.794;24.150;2023-09-19T12:55:21;8.70;;;5.60;;
21517;SDS011;61765;45.794;24.150;2023-09-19T13:03:31;10.57;;;5.40;;
21517;SDS011;61765;45.794;24.150;2023-09-19T13:11:38;8.82;;;5.43;;
21517;SDS011;61765;45.794;24.150;2023-09-19T13:19:48;9.65;;;5.30;;
21517;SDS011;61765;45.794;24.150;2023-09-19T13:27:57;8.52;;;4.80;;
21517;SDS011;61765;45.794;24.150;2023-09-19T13:36:08;6.97;;;4.75;;
21517;SDS011;61765;45.794;24.150;2023-09-19T13:44:14;7.97;;;4.93;;
21517;SDS011;61765;45.794;24.150;2023-09-19T13:52:24;10.38;;;4.88;;
21517;SDS011;61765;45.794;24.150;2023-09-19T14:00:31;7.50;;;4.90;;
21517;SDS011;61765;45.794;24.150;2023-09-19T14:08:40;9.15;;;4.65;;
21517;SDS011;61765;45.794;24.150;2023-09-19T14:16:48;12.32;;;5.07;;
21517;SDS011;61765;45.794;24.150;2023-09-19T14:24:57;13.65;;;5.70;;
21517;SDS011;61765;45.794;24.150;2023-09-19T14:33:04;12.98;;;5.72;;
21517;SDS011;61765;45.794;24.150;2023-09-19T14:41:13;15.60;;;5.50;;
21517;SDS011;61765;45.794;24.150;2023-09-19T14:49:18;14.75;;;5.28;;
21517;SDS011;61765;45.794;24.150;2023-09-19T14:57:27;15.68;;;4.82;;
21517;SDS011;61765;45.794;24.150;2023-09-19T15:05:35;14.02;;;5.22;;
21517;SDS011;61765;45.794;24.150;2023-09-19T15:13:44;7.05;;;4.55;;
21517;SDS011;61765;45.794;24.150;2023-09-19T15:21:52;9.18;;;5.07;;
21517;SDS011;61765;45.794;24.150;2023-09-19T15:30:00;6.68;;;5.03;;
21517;SDS011;61765;45.794;24.150;2023-09-19T15:38:07;7.40;;;5.63;;
21517;SDS011;61765;45.794;24.150;2023-09-19T15:46:16;8.50;;;5.15;;
21517;SDS011;61765;45.794;24.150;2023-09-19T15:54:23;12.18;;;5.65;;
21517;SDS011;61765;45.794;24.150;2023-09-19T16:02:34;13.48;;;7.07;;
21517;SDS011;61765;45.794;24.150;2023-09-19T16:10:39;12.77;;;6.47;;
21517;SDS011;61765;45.794;24.150;2023-09-19T16:18:48;15.27;;;7.18;;
21517;SDS011;61765;45.794;24.150;2023-09-19T16:26:54;13.52;;;5.97;;
21517;SDS011;61765;45.794;24.150;2023-09-19T16:35:07;10.02;;;5.90;;
21517;SDS011;61765;45.794;24.150;2023-09-19T16:43:13;9.88;;;5.50;;
21517;SDS011;61765;45.794;24.150;2023-09-19T16:51:21;10.55;;;5.68;;
21517;SDS011;61765;45.794;24.150;2023-09-19T16:59:26;10.52;;;6.47;;
21517;SDS011;61765;45.794;24.150;2023-09-19T17:07:35;9.93;;;5.82;;
21517;SDS011;61765;45.794;24.150;2023-09-19T17:15:40;11.63;;;6.57;;
21517;SDS011;61765;45.794;24.150;2023-09-19T17:23:49;12.00;;;6.22;;
21517;SDS011;61765;45.794;24.150;2023-09-19T17:31:55;9.45;;;6.22;;
21517;SDS011;61765;45.794;24.150;2023-09-19T17:48:23;12.68;;;6.55;;
21517;SDS011;61765;45.794;24.150;2023-09-19T17:56:31;12.02;;;7.25;;
21517;SDS011;61765;45.794;24.150;2023-09-19T18:04:37;12.05;;;6.30;;
21517;SDS011;61765;45.794;24.150;2023-09-19T18:12:45;8.45;;;6.30;;
21517;SDS011;61765;45.794;24.150;2023-09-19T18:20:52;8.80;;;6.47;;
21517;SDS011;61765;45.794;24.150;2023-09-19T18:29:02;10.60;;;7.18;;
21517;SDS011;61765;45.794;24.150;2023-09-19T18:37:08;10.40;;;6.72;;
21517;SDS011;61765;45.794;24.150;2023-09-19T18:45:18;12.05;;;7.38;;
21517;SDS011;61765;45.794;24.150;2023-09-19T18:53:42;10.55;;;7.22;;
21517;SDS011;61765;45.794;24.150;2023-09-19T19:02:10;12.82;;;8.45;;
21517;SDS011;61765;45.794;24.150;2023-09-19T19:10:17;11.90;;;8.20;;
21517;SDS011;61765;45.794;24.150;2023-09-19T19:18:26;16.23;;;8.38;;
21517;SDS011;61765;45.794;24.150;2023-09-19T19:26:33;14.77;;;7.88;;
21517;SDS011;61765;45.794;24.150;2023-09-19T19:34:42;16.00;;;9.20;;
21517;SDS011;61765;45.794;24.150;2023-09-19T19:42:47;14.35;;;8.02;;
21517;SDS011;61765;45.794;24.150;2023-09-19T19:50:58;15.07;;;8.55;;
21517;SDS011;61765;45.794;24.150;2023-09-19T19:59:09;15.95;;;9.27;;
21517;SDS011;61765;45.794;24.150;2023-09-19T20:07:18;20.65;;;10.40;;
21517;SDS011;61765;45.794;24.150;2023-09-19T20:15:24;17.42;;;10.27;;
21517;SDS011;61765;45.794;24.150;2023-09-19T20:23:34;13.55;;;7.53;;
21517;SDS011;61765;45.794;24.150;2023-09-19T20:31:40;12.45;;;8.02;;
21517;SDS011;61765;45.794;24.150;2023-09-19T20:39:49;11.63;;;7.93;;
21517;SDS011;61765;45.794;24.150;2023-09-19T20:47:55;16.17;;;8.00;;
21517;SDS011;61765;45.794;24.150;2023-09-19T20:56:04;13.25;;;8.00;;
21517;SDS011;61765;45.794;24.150;2023-09-19T21:04:10;15.73;;;9.43;;
21517;SDS011;61765;45.794;24.150;2023-09-19T21:12:18;13.35;;;9.25;;
21517;SDS011;61765;45.794;24.150;2023-09-19T21:20:24;17.15;;;8.60;;
21517;SDS011;61765;45.794;24.150;2023-09-19T21:28:33;13.38;;;9.48;;
21517;SDS011;61765;45.794;24.150;2023-09-19T21:36:41;15.02;;;8.90;;
21517;SDS011;61765;45.794;24.150;2023-09-19T21:44:50;17.88;;;9.43;;
21517;SDS011;61765;45.794;24.150;2023-09-19T21:52:56;14.35;;;8.73;;
21517;SDS011;61765;45.794;24.150;2023-09-19T22:01:04;15.35;;;9.02;;
21517;SDS011;61765;45.794;24.150;2023-09-19T22:09:12;11.40;;;7.65;;
21517;SDS011;61765;45.794;24.150;2023-09-19T22:17:20;14.98;;;8.70;;
21517;SDS011;61765;45.794;24.150;2023-09-19T22:25:27;13.38;;;7.53;;
21517;SDS011;61765;45.794;24.150;2023-09-19T22:33:41;15.80;;;8.63;;
21517;SDS011;61765;45.794;24.150;2023-09-19T22:41:49;15.45;;;7.93;;
21517;SDS011;61765;45.794;24.150;2023-09-19T22:49:58;16.50;;;8.27;;
21517;SDS011;61765;45.794;24.150;2023-09-19T22:58:07;14.05;;;7.55;;
21517;SDS011;61765;45.794;24.150;2023-09-19T23:06:16;11.27;;;7.53;;
21517;SDS011;61765;45.794;24.150;2023-09-19T23:14:23;13.75;;;8.35;;
21517;SDS011;61765;45.794;24.150;2023-09-19T23:22:38;16.15;;;8.05;;
21517;SDS011;61765;45.794;24.150;2023-09-19T23:30:46;15.10;;;8.05;;
21517;SDS011;61765;45.794;24.150;2023-09-19T23:38:57;14.77;;;8.02;;
21517;SDS011;61765;45.794;24.150;2023-09-19T23:47:03;15.70;;;7.05;;
21517;SDS011;61765;45.794;24.150;2023-09-19T23:55:13;14.52;;;7.20;;
